Time;durP1;ratioP1;P1;durP2;ratioP2;P2;SDS_P1;SDS_P2;PMS_P1;PMS_P2;Temp;Humidity;BMP_temperature;BMP_pressure;BME280_temperature;BME280_humidity;BME280_pressure;Samples;Min_cycle;Max_cycle;Signal;HPM_P1;HPM_P2
2022/08/29 00:02:13;;;;;;;14.57;9.60;;;16.10;99.90;;;;;;6218153;23;20407;-83
2022/08/29 00:04:40;;;;;;;16.33;9.57;;;16.10;99.90;;;;;;6191670;23;20400;-83
2022/08/29 00:07:08;;;;;;;13.63;10.43;;;16.10;99.90;;;;;;6217828;23;20393;-83
2022/08/29 00:09:35;;;;;;;10.10;8.00;;;16.00;99.90;;;;;;6217399;23;20410;-82
2022/08/29 00:12:04;;;;;;;8.57;7.70;;;15.90;99.90;;;;;;6221635;23;20427;-85
2022/08/29 00:14:31;;;;;;;13.67;8.73;;;15.80;99.90;;;;;;6217458;23;20448;-83
2022/08/29 00:16:59;;;;;;;11.10;8.30;;;15.90;99.90;;;;;;6217408;23;20655;-83
2022/08/29 00:19:27;;;;;;;16.60;9.67;;;15.80;99.90;;;;;;6219511;23;20419;-88
2022/08/29 00:21:57;;;;;;;9.10;8.20;;;15.80;99.90;;;;;;6218156;23;20411;-83
2022/08/29 00:24:24;;;;;;;16.33;8.53;;;15.80;99.90;;;;;;6218542;23;20561;-83
2022/08/29 00:26:51;;;;;;;17.63;8.27;;;15.80;99.90;;;;;;6216607;23;21009;-82
2022/08/29 00:29:18;;;;;;;14.03;8.00;;;15.70;99.90;;;;;;6217786;23;20443;-83
2022/08/29 00:31:45;;;;;;;15.93;8.47;;;15.60;99.90;;;;;;6217514;23;20464;-82
2022/08/29 00:34:12;;;;;;;13.38;8.10;;;15.70;99.90;;;;;;6218158;23;20502;-84
2022/08/29 00:36:41;;;;;;;11.20;9.10;;;15.60;99.90;;;;;;6220678;23;20326;-83
2022/08/29 00:39:15;;;;;;;9.73;8.68;;;15.70;99.90;;;;;;6216673;23;20836;-81
2022/08/29 00:41:48;;;;;;;16.20;9.53;;;15.80;99.90;;;;;;6217431;23;20238;-82
2022/08/29 00:44:15;;;;;;;10.40;8.30;;;15.80;99.90;;;;;;6217702;23;20491;-82
2022/08/29 00:46:50;;;;;;;18.93;8.70;;;15.70;99.90;;;;;;6218010;23;20442;-81
2022/08/29 00:49:43;;;;;;;15.70;8.20;;;15.70;99.90;;;;;;6216986;23;20485;-80
2022/08/29 00:52:24;;;;;;;11.33;7.40;;;15.70;99.90;;;;;;6217998;23;20621;-83
2022/08/29 00:54:53;;;;;;;10.10;8.13;;;15.60;99.90;;;;;;6217672;23;20562;-81
2022/08/29 00:57:22;;;;;;;10.48;8.00;;;15.70;99.90;;;;;;6218195;23;20516;-81
2022/08/29 00:59:50;;;;;;;11.73;8.80;;;15.70;99.90;;;;;;6217620;23;20240;-81
2022/08/29 01:02:17;;;;;;;13.47;7.90;;;15.70;99.90;;;;;;6217788;23;20393;-81
2022/08/29 01:04:45;;;;;;;12.40;8.40;;;15.70;99.90;;;;;;6217666;23;20449;-82
2022/08/29 01:07:12;;;;;;;12.60;8.30;;;15.80;99.90;;;;;;6217712;23;20475;-81
2022/08/29 01:09:44;;;;;;;12.13;7.90;;;15.80;99.90;;;;;;6217869;23;20426;-82
2022/08/29 01:12:16;;;;;;;14.18;7.60;;;15.80;99.90;;;;;;6219312;23;20385;-81
2022/08/29 01:14:49;;;;;;;15.50;7.63;;;15.80;99.90;;;;;;6193135;23;20192;-83
2022/08/29 01:17:20;;;;;;;9.03;7.67;;;15.80;99.90;;;;;;6219393;23;20502;-82
2022/08/29 01:19:59;;;;;;;12.37;8.53;;;15.90;99.90;;;;;;6219246;23;20722;-83
2022/08/29 01:23:07;;;;;;;9.65;7.47;;;15.90;99.90;;;;;;6219783;23;20493;-81
2022/08/29 01:25:38;;;;;;;9.70;7.37;;;16.00;99.90;;;;;;6220436;23;20165;-81
2022/08/29 01:28:38;;;;;;;13.50;7.93;;;16.00;99.90;;;;;;6220298;23;20426;-80
2022/08/29 01:31:19;;;;;;;7.95;7.25;;;15.80;99.90;;;;;;6194544;23;20406;-83
2022/08/29 01:34:06;;;;;;;11.83;8.83;;;15.80;99.90;;;;;;6233945;23;20276;-81
2022/08/29 01:36:42;;;;;;;14.77;8.57;;;15.70;99.90;;;;;;6196108;23;20644;-83
2022/08/29 01:39:09;;;;;;;9.15;7.70;;;15.70;99.90;;;;;;6219930;23;20488;-82
2022/08/29 01:41:36;;;;;;;11.95;7.88;;;15.70;99.90;;;;;;6220527;23;20185;-82
2022/08/29 01:44:10;;;;;;;11.00;8.20;;;15.60;99.90;;;;;;6218374;23;20247;-82
2022/08/29 01:46:37;;;;;;;13.75;8.32;;;15.70;99.90;;;;;;6220533;23;20398;-81
2022/08/29 01:49:08;;;;;;;9.90;8.17;;;15.70;99.90;;;;;;6218867;23;20249;-81
2022/08/29 01:51:36;;;;;;;14.73;8.60;;;15.70;99.90;;;;;;6219146;23;20371;-80
2022/08/29 01:54:07;;;;;;;11.47;7.63;;;16.00;99.90;;;;;;6218248;23;20796;-81
2022/08/29 01:56:38;;;;;;;9.27;6.63;;;16.00;99.90;;;;;;6219242;23;20452;-83
2022/08/29 01:59:09;;;;;;;9.03;6.70;;;16.20;99.90;;;;;;6219886;23;20431;-82
2022/08/29 02:01:39;;;;;;;11.63;7.70;;;16.30;99.90;;;;;;6193714;23;20477;-84
2022/08/29 02:04:07;;;;;;;7.93;5.83;;;16.10;99.90;;;;;;6193702;23;20431;-83
2022/08/29 02:06:35;;;;;;;11.17;7.13;;;16.10;99.90;;;;;;6218873;23;20389;-82
2022/08/29 02:09:03;;;;;;;12.13;7.40;;;16.20;99.90;;;;;;6221942;23;20432;-80
2022/08/29 02:11:31;;;;;;;10.90;7.63;;;16.10;99.90;;;;;;6196921;23;20371;-82
2022/08/29 02:13:58;;;;;;;9.93;7.00;;;16.20;99.90;;;;;;6226139;23;20442;-82
2022/08/29 02:16:27;;;;;;;8.63;7.43;;;16.10;99.90;;;;;;6230939;23;20426;-82
2022/08/29 02:18:54;;;;;;;8.40;7.20;;;16.10;99.90;;;;;;6179928;23;20418;-81
2022/08/29 02:21:23;;;;;;;7.27;6.57;;;16.10;99.90;;;;;;6219873;23;20432;-81
2022/08/29 02:23:51;;;;;;;7.90;6.60;;;16.10;99.90;;;;;;6193561;23;20448;-83
2022/08/29 02:26:19;;;;;;;12.27;8.77;;;16.10;99.90;;;;;;6219461;23;20427;-83
2022/08/29 02:28:49;;;;;;;9.43;6.70;;;16.00;99.90;;;;;;6218181;23;20495;-80
2022/08/29 02:31:21;;;;;;;13.83;8.87;;;16.20;99.90;;;;;;6218043;23;20416;-80
2022/08/29 02:33:50;;;;;;;9.90;7.37;;;16.10;99.90;;;;;;6217336;23;20343;-81
2022/08/29 02:36:18;;;;;;;8.57;7.57;;;16.00;99.90;;;;;;6215425;23;20416;-80
2022/08/29 02:38:45;;;;;;;16.50;8.27;;;15.90;99.90;;;;;;6216613;23;20404;-82
2022/08/29 02:41:13;;;;;;;13.43;7.87;;;16.00;99.90;;;;;;6191904;23;20412;-82
2022/08/29 02:43:41;;;;;;;11.40;6.90;;;16.00;99.90;;;;;;6218212;23;20375;-82
2022/08/29 02:46:14;;;;;;;12.60;8.10;;;16.00;99.90;;;;;;6219273;23;20440;-82
2022/08/29 02:48:42;;;;;;;8.20;6.93;;;16.10;99.90;;;;;;6218469;23;20350;-81
2022/08/29 02:51:29;;;;;;;15.53;8.30;;;16.30;99.90;;;;;;6196792;23;20385;-82
2022/08/29 02:53:59;;;;;;;8.73;7.83;;;16.40;99.90;;;;;;6192601;23;20476;-81
2022/08/29 02:56:26;;;;;;;11.90;6.23;;;16.40;99.90;;;;;;6219168;23;20411;-81
2022/08/29 02:58:54;;;;;;;14.93;8.77;;;16.30;99.90;;;;;;6193706;23;20411;-82
2022/08/29 03:01:22;;;;;;;17.00;7.80;;;16.30;99.90;;;;;;6219829;23;20427;-82
2022/08/29 03:03:50;;;;;;;14.10;7.37;;;16.10;99.90;;;;;;6230723;23;20393;-81
2022/08/29 03:06:18;;;;;;;14.60;8.70;;;16.00;99.90;;;;;;6237309;23;20459;-81
2022/08/29 03:08:45;;;;;;;17.67;8.03;;;16.10;99.90;;;;;;6225183;23;20411;-81
2022/08/29 03:11:12;;;;;;;11.97;8.10;;;16.20;99.90;;;;;;6220228;23;20777;-82
2022/08/29 03:13:46;;;;;;;11.23;7.30;;;16.00;99.90;;;;;;6219398;23;20434;-82
2022/08/29 03:16:13;;;;;;;12.07;6.13;;;16.00;99.90;;;;;;6191997;23;20449;-82
2022/08/29 03:18:40;;;;;;;9.30;8.07;;;15.90;99.90;;;;;;6218769;23;20412;-81
2022/08/29 03:21:19;;;;;;;14.00;8.63;;;15.80;99.90;;;;;;6218523;23;20483;-81
2022/08/29 03:23:47;;;;;;;15.13;9.23;;;15.90;99.90;;;;;;6219766;23;20163;-80
2022/08/29 03:26:14;;;;;;;9.50;7.10;;;15.70;99.90;;;;;;6218893;23;20430;-81
2022/08/29 03:28:42;;;;;;;8.83;7.93;;;15.60;99.90;;;;;;6219698;23;20759;-81
2022/08/29 03:31:09;;;;;;;8.30;6.90;;;15.40;99.90;;;;;;6220229;23;20433;-81
2022/08/29 03:33:37;;;;;;;11.00;7.87;;;15.40;99.90;;;;;;6220317;23;20405;-80
2022/08/29 03:36:07;;;;;;;10.20;7.30;;;15.30;99.90;;;;;;6222073;23;20471;-82
2022/08/29 03:38:42;;;;;;;8.32;7.55;;;15.20;99.90;;;;;;6221721;23;20398;-81
2022/08/29 03:41:09;;;;;;;9.90;7.93;;;15.10;99.90;;;;;;6221374;23;20185;-81
2022/08/29 03:43:38;;;;;;;9.20;7.90;;;15.10;99.90;;;;;;6220043;23;20437;-80
2022/08/29 03:46:05;;;;;;;16.15;9.65;;;15.20;99.90;;;;;;6219203;23;20237;-81
2022/08/29 03:48:32;;;;;;;10.17;8.20;;;15.10;99.90;;;;;;6217992;23;20254;-83
2022/08/29 03:51:02;;;;;;;16.80;9.88;;;15.20;99.90;;;;;;6218500;23;20452;-82
2022/08/29 03:53:31;;;;;;;9.50;7.30;;;15.10;99.90;;;;;;6217436;23;20256;-82
2022/08/29 03:55:58;;;;;;;13.88;7.93;;;15.00;99.90;;;;;;6217664;23;20579;-82
2022/08/29 03:58:25;;;;;;;10.25;9.13;;;15.00;99.90;;;;;;6217704;23;20181;-81
2022/08/29 04:00:53;;;;;;;9.40;8.40;;;15.00;99.90;;;;;;6216397;23;20231;-81
2022/08/29 04:03:20;;;;;;;12.35;9.20;;;15.00;99.90;;;;;;6216717;23;20207;-81
2022/08/29 04:05:56;;;;;;;15.25;9.15;;;14.90;99.90;;;;;;6216487;23;20645;-84
2022/08/29 04:08:23;;;;;;;18.20;10.30;;;14.80;99.90;;;;;;6217925;23;20199;-82
2022/08/29 04:10:50;;;;;;;20.48;8.32;;;14.80;99.90;;;;;;6215702;23;20275;-81
2022/08/29 04:13:17;;;;;;;14.10;9.18;;;14.80;99.90;;;;;;6215964;23;20206;-82
2022/08/29 04:15:44;;;;;;;9.70;7.63;;;14.80;99.90;;;;;;6215730;23;20415;-82
2022/08/29 04:18:11;;;;;;;14.52;10.15;;;14.80;99.90;;;;;;6216264;23;20243;-84
2022/08/29 04:20:43;;;;;;;19.55;8.90;;;14.90;99.90;;;;;;6216949;23;20243;-85
2022/08/29 04:23:12;;;;;;;10.27;8.23;;;14.90;99.90;;;;;;6216818;23;20199;-82
2022/08/29 04:25:42;;;;;;;17.23;9.68;;;14.90;99.90;;;;;;6216359;23;20507;-83
2022/08/29 04:28:12;;;;;;;10.93;7.80;;;14.80;99.90;;;;;;6213933;23;20508;-85
2022/08/29 04:30:46;;;;;;;19.20;9.32;;;14.80;99.90;;;;;;6191272;23;20178;-83
2022/08/29 04:33:19;;;;;;;13.00;7.63;;;14.80;99.90;;;;;;6217379;23;20209;-84
2022/08/29 04:35:48;;;;;;;12.25;10.25;;;15.10;99.90;;;;;;6217502;23;20186;-83
2022/08/29 04:38:15;;;;;;;16.58;9.38;;;14.90;99.90;;;;;;6215986;23;20186;-84
2022/08/29 04:40:43;;;;;;;14.52;9.02;;;14.90;99.90;;;;;;6189493;23;20484;-81
2022/08/29 04:43:10;;;;;;;12.07;8.50;;;15.00;99.90;;;;;;6216758;23;20188;-82
2022/08/29 04:45:39;;;;;;;9.10;7.27;;;15.00;99.90;;;;;;6216385;23;20247;-81
2022/08/29 04:48:09;;;;;;;12.95;8.55;;;15.00;99.90;;;;;;6218130;23;20800;-82
2022/08/29 04:50:37;;;;;;;13.57;9.95;;;15.10;99.90;;;;;;6219312;23;20229;-83
2022/08/29 04:53:04;;;;;;;12.70;7.60;;;15.10;99.90;;;;;;6193092;23;20247;-83
2022/08/29 04:55:32;;;;;;;18.37;8.87;;;15.20;99.90;;;;;;6218737;23;20228;-83
2022/08/29 04:57:58;;;;;;;19.90;8.63;;;15.40;99.90;;;;;;6192036;23;20398;-81
2022/08/29 05:00:28;;;;;;;17.65;9.32;;;15.50;99.90;;;;;;6219242;23;20371;-84
2022/08/29 05:02:56;;;;;;;8.60;7.80;;;15.60;99.90;;;;;;6219598;23;20334;-82
2022/08/29 05:05:25;;;;;;;19.63;9.00;;;15.60;99.90;;;;;;6219199;23;20254;-80
2022/08/29 05:07:52;;;;;;;8.80;7.87;;;15.70;99.90;;;;;;6220269;23;20375;-84
2022/08/29 05:10:20;;;;;;;10.90;7.40;;;15.80;99.90;;;;;;6219075;23;20439;-83
2022/08/29 05:12:47;;;;;;;9.03;8.10;;;15.90;99.90;;;;;;6192955;23;20471;-84
2022/08/29 05:15:14;;;;;;;7.15;6.45;;;16.10;99.90;;;;;;6220360;23;20494;-81
2022/08/29 05:17:44;;;;;;;10.33;6.70;;;16.40;99.90;;;;;;6227853;23;20171;-81
2022/08/29 05:20:11;;;;;;;13.53;8.50;;;16.30;99.90;;;;;;6235466;23;20453;-81
2022/08/29 05:22:41;;;;;;;14.70;7.80;;;16.40;99.90;;;;;;6222598;23;21178;-81
2022/08/29 05:25:10;;;;;;;8.80;6.27;;;16.50;99.90;;;;;;6221352;23;20479;-81
2022/08/29 05:27:44;;;;;;;16.87;6.87;;;16.70;99.90;;;;;;6221572;23;20413;-81
2022/08/29 05:30:15;;;;;;;8.80;6.07;;;16.90;99.90;;;;;;6219011;23;20584;-81
2022/08/29 05:33:00;;;;;;;8.00;5.73;;;16.90;99.90;;;;;;6226780;23;20354;-82
2022/08/29 05:35:27;;;;;;;8.70;6.37;;;17.00;99.90;;;;;;6207316;23;20430;-80
2022/08/29 05:37:54;;;;;;;18.60;7.03;;;17.10;99.90;;;;;;6224373;23;20433;-81
2022/08/29 05:40:22;;;;;;;10.47;5.87;;;17.20;99.90;;;;;;6220100;23;20493;-82
2022/08/29 05:42:49;;;;;;;8.20;5.90;;;17.20;99.90;;;;;;6220018;23;20372;-82
2022/08/29 05:45:16;;;;;;;13.00;5.37;;;17.20;99.90;;;;;;6219995;23;20462;-82
2022/08/29 05:47:44;;;;;;;6.47;5.83;;;17.40;99.90;;;;;;6220811;23;20404;-83
2022/08/29 05:50:15;;;;;;;6.23;5.50;;;17.50;99.90;;;;;;6221075;23;20467;-81
2022/08/29 05:52:45;;;;;;;7.40;5.57;;;17.70;99.90;;;;;;6226353;23;20476;-83
2022/08/29 05:55:15;;;;;;;8.10;5.10;;;17.90;99.90;;;;;;6195765;23;21005;-83
2022/08/29 05:57:42;;;;;;;7.93;5.20;;;17.90;99.90;;;;;;6216412;23;20397;-82
2022/08/29 06:00:12;;;;;;;6.80;6.10;;;18.10;99.90;;;;;;6220576;23;20430;-86
2022/08/29 06:02:41;;;;;;;5.80;4.83;;;18.30;99.90;;;;;;6194709;23;20395;-84
2022/08/29 06:05:10;;;;;;;16.00;6.67;;;18.60;99.90;;;;;;6224220;23;20549;-83
2022/08/29 06:07:37;;;;;;;5.90;4.80;;;18.70;99.90;;;;;;6220228;23;20435;-82
2022/08/29 06:10:07;;;;;;;7.23;4.63;;;18.80;99.90;;;;;;6220785;23;20393;-83
2022/08/29 06:12:35;;;;;;;5.40;4.60;;;19.10;99.90;;;;;;6192373;23;20648;-81
2022/08/29 06:15:02;;;;;;;8.53;4.57;;;19.40;99.90;;;;;;6220185;23;20439;-83
2022/08/29 06:17:29;;;;;;;8.40;4.60;;;20.00;99.90;;;;;;6219618;23;20409;-83
2022/08/29 06:19:56;;;;;;;7.03;4.53;;;20.40;99.90;;;;;;6220804;23;20645;-83
2022/08/29 06:22:23;;;;;;;7.23;3.70;;;20.50;99.90;;;;;;6218153;23;20390;-82
2022/08/29 06:24:53;;;;;;;7.47;5.40;;;20.90;99.90;;;;;;6218726;23;20402;-80
2022/08/29 06:27:24;;;;;;;10.90;4.10;;;21.40;99.90;;;;;;6218564;23;20386;-82
2022/08/29 06:29:51;;;;;;;6.57;4.30;;;21.80;99.90;;;;;;6217152;23;20351;-82
2022/08/29 06:32:19;;;;;;;6.10;3.27;;;22.90;99.90;;;;;;6217344;23;20996;-83
2022/08/29 06:34:48;;;;;;;9.23;4.50;;;23.20;99.90;;;;;;6218947;23;20375;-84
2022/08/29 06:37:16;;;;;;;6.30;3.80;;;23.20;99.90;;;;;;6218228;23;20402;-80
2022/08/29 06:39:43;;;;;;;12.10;4.87;;;23.20;99.90;;;;;;6192923;23;20379;-83
2022/08/29 06:42:09;;;;;;;12.33;4.70;;;23.20;99.90;;;;;;6218118;23;20473;-83
2022/08/29 06:44:37;;;;;;;5.10;3.37;;;23.60;99.90;;;;;;6217653;23;20382;-82
2022/08/29 06:47:09;;;;;;;7.70;4.27;;;23.90;99.90;;;;;;6218400;23;20378;-83
2022/08/29 06:49:37;;;;;;;7.20;3.63;;;24.50;99.90;;;;;;6218579;23;20407;-80
2022/08/29 06:52:06;;;;;;;6.10;3.20;;;24.90;99.90;;;;;;6223954;23;20389;-80
2022/08/29 06:54:34;;;;;;;12.37;3.80;;;24.90;99.90;;;;;;6169913;23;20376;-83
2022/08/29 06:57:01;;;;;;;5.97;3.17;;;24.50;99.90;;;;;;6219762;23;20445;-82
2022/08/29 06:59:28;;;;;;;10.60;4.00;;;24.30;99.90;;;;;;6220952;23;20650;-84
2022/08/29 07:01:57;;;;;;;4.43;3.70;;;24.40;99.90;;;;;;6220651;23;20440;-82
2022/08/29 07:04:34;;;;;;;12.27;3.50;;;24.80;99.90;;;;;;6223200;23;20376;-81
2022/08/29 07:07:02;;;;;;;5.07;3.70;;;25.80;99.90;;;;;;6220721;23;20407;-85
2022/08/29 07:09:31;;;;;;;5.33;3.40;;;26.70;99.90;;;;;;6216898;23;20804;-83
2022/08/29 07:11:58;;;;;;;7.87;3.93;;;26.40;99.90;;;;;;6219884;23;20473;-83
2022/08/29 07:14:25;;;;;;;11.33;3.70;;;26.80;99.90;;;;;;6219789;23;20400;-82
2022/08/29 07:16:53;;;;;;;4.73;3.63;;;27.60;99.90;;;;;;6219043;23;20491;-82
2022/08/29 07:19:22;;;;;;;3.53;2.97;;;27.50;99.90;;;;;;6218928;23;20595;-83
2022/08/29 07:21:52;;;;;;;8.67;3.53;;;27.40;99.90;;;;;;6219150;23;20810;-86
2022/08/29 07:24:24;;;;;;;4.90;3.33;;;28.50;99.90;;;;;;6193867;23;20384;-83
2022/08/29 07:26:51;;;;;;;5.10;3.67;;;29.80;98.50;;;;;;6218200;23;20387;-83
2022/08/29 07:29:22;;;;;;;5.07;3.43;;;31.10;95.60;;;;;;6218871;23;20559;-82
2022/08/29 07:31:49;;;;;;;3.73;3.30;;;32.30;91.90;;;;;;6222767;23;20463;-83
2022/08/29 07:34:16;;;;;;;5.00;3.00;;;33.20;87.10;;;;;;6217896;23;21045;-81
2022/08/29 07:36:46;;;;;;;5.07;3.73;;;33.80;79.20;;;;;;6219210;23;20810;-83
2022/08/29 07:39:16;;;;;;;6.10;3.53;;;33.90;77.00;;;;;;6218693;23;20451;-82
2022/08/29 07:41:46;;;;;;;3.50;3.20;;;33.10;80.10;;;;;;6217539;23;20446;-85
2022/08/29 07:44:16;;;;;;;7.23;3.97;;;32.30;82.00;;;;;;6217551;23;20507;-81
2022/08/29 07:46:44;;;;;;;5.57;3.87;;;32.50;80.10;;;;;;6217424;23;20416;-84
2022/08/29 07:49:11;;;;;;;5.93;3.57;;;33.20;76.50;;;;;;6191632;23;20484;-82
2022/08/29 07:51:39;;;;;;;7.10;3.73;;;33.20;76.50;;;;;;6219080;23;20550;-82
2022/08/29 07:54:12;;;;;;;5.10;3.30;;;33.90;76.20;;;;;;6218229;23;20374;-84
2022/08/29 07:56:42;;;;;;;9.17;3.10;;;35.00;71.60;;;;;;6215660;23;20451;-82
2022/08/29 07:59:12;;;;;;;4.80;3.30;;;35.30;69.40;;;;;;6217645;23;20396;-83
2022/08/29 08:01:44;;;;;;;4.90;3.80;;;35.10;69.70;;;;;;6216578;23;20373;-82
2022/08/29 08:04:12;;;;;;;6.20;3.73;;;35.10;67.30;;;;;;6217508;23;20732;-83
2022/08/29 08:06:45;;;;;;;3.77;2.90;;;34.00;67.20;;;;;;6217726;23;20707;-85
2022/08/29 08:09:15;;;;;;;8.60;3.63;;;32.70;69.20;;;;;;6215875;23;20443;-83
2022/08/29 08:11:42;;;;;;;4.83;2.83;;;32.00;71.80;;;;;;6217072;23;20468;-83
2022/08/29 08:14:11;;;;;;;6.93;3.80;;;31.20;75.50;;;;;;6167447;23;20465;-82
2022/08/29 08:16:40;;;;;;;4.00;3.13;;;31.60;75.10;;;;;;6191696;23;20554;-81
2022/08/29 08:19:11;;;;;;;4.00;3.10;;;30.80;76.20;;;;;;6218090;23;20408;-83
2022/08/29 08:21:40;;;;;;;6.93;4.10;;;30.80;77.60;;;;;;6218919;23;20446;-84
2022/08/29 08:24:16;;;;;;;5.63;4.40;;;31.50;75.20;;;;;;6221080;23;20415;-82
2022/08/29 08:26:47;;;;;;;5.50;3.87;;;31.20;76.30;;;;;;6191711;23;20601;-82
2022/08/29 08:29:14;;;;;;;5.03;3.80;;;31.40;74.80;;;;;;6220880;23;20643;-85
2022/08/29 08:31:43;;;;;;;10.30;3.73;;;31.60;75.60;;;;;;6219868;23;20410;-81
2022/08/29 08:34:14;;;;;;;4.30;3.10;;;31.00;74.90;;;;;;6194391;23;20660;-85
2022/08/29 08:36:43;;;;;;;3.50;3.10;;;30.10;78.90;;;;;;6200852;23;20428;-84
2022/08/29 08:39:11;;;;;;;6.37;3.33;;;30.80;78.80;;;;;;6196272;23;20791;-83
2022/08/29 08:41:56;;;;;;;4.00;3.43;;;31.10;77.90;;;;;;6221095;23;20403;-84
2022/08/29 08:44:32;;;;;;;3.90;3.10;;;31.40;76.80;;;;;;6221564;23;20354;-80
2022/08/29 08:47:05;;;;;;;8.53;3.80;;;32.00;74.40;;;;;;6222949;23;20647;-82
2022/08/29 08:49:39;;;;;;;5.50;3.30;;;32.20;73.70;;;;;;6221667;23;20377;-84
2022/08/29 08:52:12;;;;;;;5.00;3.10;;;32.90;73.50;;;;;;6186849;23;20430;-82
2022/08/29 08:54:49;;;;;;;6.70;3.63;;;32.90;70.30;;;;;;6219539;23;20451;-80
2022/08/29 08:57:17;;;;;;;7.63;3.30;;;32.20;72.80;;;;;;6219492;23;20452;-81
2022/08/29 08:59:54;;;;;;;4.83;3.70;;;33.20;70.10;;;;;;6217892;23;20403;-80
2022/08/29 09:02:51;;;;;;;5.13;3.63;;;32.20;69.90;;;;;;6219327;23;20382;-81
2022/08/29 09:05:23;;;;;;;6.30;3.60;;;30.40;74.20;;;;;;6195640;23;20429;-81
2022/08/29 09:08:21;;;;;;;6.10;3.30;;;29.90;77.60;;;;;;6222879;23;20465;-79
2022/08/29 09:11:00;;;;;;;5.57;3.30;;;29.50;78.80;;;;;;6224604;23;20378;-82
2022/08/29 09:13:52;;;;;;;7.10;4.30;;;29.60;79.60;;;;;;6225880;23;20453;-83
2022/08/29 09:16:29;;;;;;;5.93;3.53;;;29.40;80.50;;;;;;6222347;23;20399;-82
2022/08/29 09:19:08;;;;;;;5.33;3.60;;;30.30;79.30;;;;;;6222045;23;20382;-85
2022/08/29 09:21:51;;;;;;;8.93;4.13;;;30.30;79.40;;;;;;6220700;23;20720;-81
2022/08/29 09:24:38;;;;;;;5.40;3.40;;;30.90;76.40;;;;;;6221908;23;20404;-84
2022/08/29 09:27:05;;;;;;;7.50;3.73;;;29.90;81.90;;;;;;6220291;23;20413;-83
2022/08/29 09:29:32;;;;;;;8.23;4.50;;;28.00;87.60;;;;;;6224302;23;20428;-81
2022/08/29 09:32:07;;;;;;;5.90;3.37;;;26.70;92.90;;;;;;6225406;23;20409;-83
2022/08/29 09:34:46;;;;;;;5.17;4.03;;;25.60;95.30;;;;;;6201282;23;20354;-81
2022/08/29 09:37:34;;;;;;;6.27;3.70;;;24.90;98.70;;;;;;6203051;23;20491;-82
2022/08/29 09:40:07;;;;;;;7.63;3.83;;;24.60;99.90;;;;;;6226917;23;20426;-83
2022/08/29 09:42:39;;;;;;;4.37;3.30;;;24.50;99.90;;;;;;6219474;23;20451;-82
2022/08/29 09:45:16;;;;;;;8.03;3.60;;;24.40;99.90;;;;;;6219556;23;20357;-82
2022/08/29 09:47:44;;;;;;;3.87;2.50;;;24.30;99.90;;;;;;6218086;23;20357;-81
2022/08/29 09:50:23;;;;;;;3.77;2.57;;;23.90;99.90;;;;;;6217931;23;20399;-82
2022/08/29 09:52:58;;;;;;;15.03;3.10;;;23.80;99.90;;;;;;6217566;23;20355;-82
2022/08/29 09:55:43;;;;;;;6.40;3.70;;;23.80;99.90;;;;;;6217683;23;20469;-84
2022/08/29 09:58:17;;;;;;;4.87;2.77;;;23.80;99.90;;;;;;6219532;23;20389;-85
2022/08/29 10:01:24;;;;;;;3.30;2.93;;;23.60;99.90;;;;;;6219958;23;20431;-83
2022/08/29 10:04:03;;;;;;;3.43;2.80;;;23.70;99.90;;;;;;6219365;23;20533;-83
2022/08/29 10:06:33;;;;;;;5.87;3.23;;;23.40;99.90;;;;;;6219257;23;20400;-84
2022/08/29 10:09:23;;;;;;;5.87;2.47;;;23.30;99.90;;;;;;6218410;23;20383;-82
2022/08/29 10:11:59;;;;;;;4.87;3.70;;;23.10;99.90;;;;;;6191133;23;20374;-82
2022/08/29 10:14:33;;;;;;;11.30;3.70;;;22.90;99.90;;;;;;6167662;23;20357;-81
2022/08/29 10:19:51;;;;;;;3.83;3.30;;;22.90;99.90;;;;;;6218796;23;20972;-86
2022/08/29 10:22:31;;;;;;;7.00;2.70;;;22.90;99.90;;;;;;6219745;23;20469;-82
2022/08/29 10:25:17;;;;;;;5.47;3.43;;;22.90;99.90;;;;;;6219805;23;20373;-84
2022/08/29 10:27:59;;;;;;;6.30;3.37;;;23.00;99.90;;;;;;6219591;23;20508;-84
2022/08/29 10:30:35;;;;;;;7.73;3.73;;;23.20;99.90;;;;;;6216620;23;20782;-82
2022/08/29 10:33:32;;;;;;;6.80;3.90;;;23.40;99.90;;;;;;6219435;23;20419;-83
2022/08/29 10:36:05;;;;;;;3.13;2.60;;;23.60;99.90;;;;;;6218105;23;20392;-84
2022/08/29 10:38:34;;;;;;;5.80;3.27;;;23.70;99.90;;;;;;6218965;23;20392;-84
2022/08/29 10:41:23;;;;;;;4.23;2.70;;;23.80;99.90;;;;;;6219190;23;20403;-83
2022/08/29 10:44:03;;;;;;;3.60;2.47;;;23.90;99.90;;;;;;6219727;23;20413;-83
2022/08/29 10:47:18;;;;;;;8.07;3.30;;;24.10;99.90;;;;;;6218601;23;20451;-82
2022/08/29 10:50:10;;;;;;;6.33;2.80;;;24.10;99.90;;;;;;6102574;23;20433;-84
2022/08/29 10:53:08;;;;;;;4.13;2.37;;;24.10;99.90;;;;;;6219047;23;20360;-82
2022/08/29 10:55:55;;;;;;;4.33;3.07;;;24.10;99.90;;;;;;6192219;23;20444;-83
2022/08/29 10:59:04;;;;;;;3.73;2.20;;;24.30;99.90;;;;;;6217983;23;20423;-82
2022/08/29 11:01:40;;;;;;;4.47;2.87;;;24.10;99.90;;;;;;6217782;23;20387;-85
2022/08/29 11:04:22;;;;;;;5.50;2.80;;;23.70;99.90;;;;;;6218757;23;20356;-83
2022/08/29 11:07:01;;;;;;;6.43;2.93;;;23.60;99.90;;;;;;6193230;23;20401;-84
2022/08/29 11:09:34;;;;;;;7.70;2.70;;;23.70;99.90;;;;;;6221589;23;20433;-83
2022/08/29 11:12:28;;;;;;;5.13;2.77;;;23.90;99.90;;;;;;6238045;23;20413;-85
2022/08/29 11:15:06;;;;;;;3.30;3.00;;;24.00;99.90;;;;;;6229125;23;20784;-84
2022/08/29 11:17:41;;;;;;;3.73;2.73;;;24.00;99.90;;;;;;6222549;23;20772;-84
2022/08/29 11:20:20;;;;;;;3.03;2.30;;;23.80;99.90;;;;;;6221230;23;20379;-84
2022/08/29 11:22:59;;;;;;;5.60;3.13;;;23.70;99.90;;;;;;6220598;23;20742;-85
2022/08/29 11:25:27;;;;;;;6.73;3.40;;;23.50;99.90;;;;;;6220275;23;20352;-84
2022/08/29 11:28:30;;;;;;;6.73;3.20;;;23.30;99.90;;;;;;6220816;23;20388;-84
2022/08/29 11:31:00;;;;;;;4.60;2.53;;;23.30;99.90;;;;;;6187409;23;20415;-85
2022/08/29 11:33:41;;;;;;;6.13;2.90;;;23.20;99.90;;;;;;6219527;23;20687;-86
2022/08/29 11:36:26;;;;;;;3.13;2.77;;;23.20;99.90;;;;;;6222195;23;20392;-85
2022/08/29 11:39:27;;;;;;;3.73;3.10;;;23.30;99.90;;;;;;6219618;23;20368;-84
2022/08/29 11:42:09;;;;;;;6.77;3.70;;;23.50;99.90;;;;;;6218936;23;20402;-82
2022/08/29 11:44:46;;;;;;;10.53;3.03;;;23.50;99.90;;;;;;6192566;23;20432;-83
2022/08/29 11:47:32;;;;;;;6.07;3.33;;;23.50;99.90;;;;;;6194619;23;20356;-85
2022/08/29 11:50:15;;;;;;;5.10;2.90;;;23.20;99.90;;;;;;6218182;23;20569;-84
2022/08/29 11:53:12;;;;;;;6.07;3.47;;;23.00;99.90;;;;;;6219873;23;20368;-85
2022/08/29 11:55:43;;;;;;;5.40;2.83;;;23.00;99.90;;;;;;6221631;23;20349;-86
2022/08/29 11:58:25;;;;;;;5.50;3.20;;;23.10;99.90;;;;;;6217880;23;20408;-82
2022/08/29 12:01:01;;;;;;;5.70;2.83;;;23.10;99.90;;;;;;6219551;23;20567;-85
2022/08/29 12:03:33;;;;;;;4.87;2.30;;;23.20;99.90;;;;;;6193807;23;20363;-83
2022/08/29 12:06:04;;;;;;;5.90;2.67;;;23.00;99.90;;;;;;6218582;23;20359;-82
2022/08/29 12:08:52;;;;;;;3.57;2.37;;;22.70;99.90;;;;;;6219464;23;20425;-85
2022/08/29 12:12:02;;;;;;;2.97;2.30;;;22.60;99.90;;;;;;6220078;23;20372;-84
2022/08/29 12:14:29;;;;;;;7.03;2.97;;;22.60;99.90;;;;;;6219911;23;20591;-84
2022/08/29 12:17:07;;;;;;;5.00;2.40;;;22.60;99.90;;;;;;6221602;23;20425;-82
2022/08/29 12:19:54;;;;;;;4.63;2.63;;;22.60;99.90;;;;;;6169723;23;20392;-83
2022/08/29 12:22:46;;;;;;;5.87;2.73;;;22.70;99.90;;;;;;6220677;23;20373;-84
2022/08/29 12:25:42;;;;;;;3.10;2.60;;;22.60;99.90;;;;;;6231374;23;20394;-85
2022/08/29 12:28:14;;;;;;;4.73;2.50;;;22.80;99.90;;;;;;6219269;23;20385;-84
2022/08/29 12:31:01;;;;;;;3.23;2.40;;;22.90;99.90;;;;;;6219111;23;20736;-85
2022/08/29 12:34:00;;;;;;;4.80;2.90;;;22.90;99.90;;;;;;6220036;23;20424;-85
2022/08/29 12:37:00;;;;;;;7.83;2.40;;;23.00;99.90;;;;;;6218807;23;20413;-87
2022/08/29 12:40:09;;;;;;;5.27;2.57;;;23.00;99.90;;;;;;6220863;23;20437;-85
2022/08/29 12:42:55;;;;;;;4.80;2.57;;;23.00;99.90;;;;;;6196300;23;20401;-85
2022/08/29 12:45:30;;;;;;;4.60;2.53;;;23.00;99.90;;;;;;6196879;23;20377;-83
2022/08/29 12:48:03;;;;;;;3.30;3.00;;;23.00;99.90;;;;;;6204146;23;20401;-81
2022/08/29 12:50:35;;;;;;;4.60;2.90;;;23.00;99.90;;;;;;6226008;23;20700;-87
2022/08/29 12:53:05;;;;;;;4.63;2.07;;;23.00;99.90;;;;;;6220128;23;20396;-85
2022/08/29 12:55:42;;;;;;;6.40;2.60;;;22.90;99.90;;;;;;6218684;23;20445;-83
2022/08/29 12:58:12;;;;;;;3.63;2.33;;;22.90;99.90;;;;;;6194256;23;20796;-84
2022/08/29 13:00:51;;;;;;;4.87;2.63;;;22.90;99.90;;;;;;6220937;23;20378;-82
2022/08/29 13:03:20;;;;;;;3.43;2.77;;;22.90;99.90;;;;;;6219462;23;20372;-85
2022/08/29 13:05:47;;;;;;;4.40;3.03;;;22.90;99.90;;;;;;6196504;23;20375;-87
2022/08/29 13:08:32;;;;;;;3.37;2.67;;;22.80;99.90;;;;;;6222287;23;20385;-84
2022/08/29 13:11:05;;;;;;;7.07;3.20;;;22.80;99.90;;;;;;6223560;23;20374;-83
2022/08/29 13:13:34;;;;;;;3.97;2.70;;;22.70;99.90;;;;;;6220804;23;20388;-84
2022/08/29 13:16:05;;;;;;;3.37;3.07;;;22.90;99.90;;;;;;6229407;23;20410;-86
2022/08/29 13:18:36;;;;;;;4.17;2.37;;;22.90;99.90;;;;;;6214475;23;20467;-86